Time;durP1;ratioP1;P1;durP2;ratioP2;P2;SDS_P1;SDS_P2;PMS_P1;PMS_P2;Temp;Humidity;BMP_temperature;BMP_pressure;BME280_temperature;BME280_humidity;BME280_pressure;Samples;Min_cycle;Max_cycle;Signal;HPM_P1;HPM_P2
2022/10/14 00:00:35;;;;;;;37.53;20.38;;;13.60;84.40;;;;;;5034215;28;20024;-62
2022/10/14 00:03:00;;;;;;;35.88;20.30;;;13.60;83.70;;;;;;5040464;28;20075;-62
2022/10/14 00:05:26;;;;;;;36.95;19.92;;;13.60;83.70;;;;;;5052210;28;20060;-62
2022/10/14 00:07:52;;;;;;;36.85;19.58;;;13.60;83.70;;;;;;5044379;28;20071;-62
2022/10/14 00:10:18;;;;;;;39.88;20.85;;;13.60;83.70;;;;;;5041894;28;20473;-62
2022/10/14 00:12:44;;;;;;;39.35;19.45;;;13.60;83.70;;;;;;5043874;28;20032;-62
2022/10/14 00:15:09;;;;;;;31.95;17.85;;;13.60;83.70;;;;;;5036623;28;20128;-62
2022/10/14 00:17:35;;;;;;;38.25;20.88;;;13.60;83.70;;;;;;5038104;28;20021;-62
2022/10/14 00:20:02;;;;;;;30.08;17.23;;;13.60;83.80;;;;;;5048789;28;20029;-62
2022/10/14 00:22:28;;;;;;;27.13;14.93;;;13.60;83.80;;;;;;5045529;28;20450;-62
2022/10/14 00:24:53;;;;;;;43.10;16.33;;;13.60;83.80;;;;;;5049775;28;20029;-62
2022/10/14 00:27:19;;;;;;;34.10;16.23;;;13.60;83.80;;;;;;5034307;28;20041;-62
2022/10/14 00:29:45;;;;;;;34.65;15.77;;;13.60;83.90;;;;;;5042511;28;20031;-62
2022/10/14 00:32:11;;;;;;;31.95;16.80;;;13.50;83.90;;;;;;5036460;28;20041;-62
2022/10/14 00:34:36;;;;;;;29.73;16.35;;;13.50;84.00;;;;;;5044886;28;20029;-62
2022/10/14 00:37:03;;;;;;;35.25;17.98;;;13.50;84.00;;;;;;5045590;28;20025;-62
2022/10/14 00:39:28;;;;;;;32.35;17.30;;;13.50;84.00;;;;;;5043023;28;20162;-62
2022/10/14 00:41:55;;;;;;;33.75;17.35;;;13.50;84.00;;;;;;5040600;28;20485;-62
2022/10/14 00:44:23;;;;;;;37.90;17.40;;;13.60;84.10;;;;;;5033833;28;20116;-62
2022/10/14 00:46:50;;;;;;;29.90;15.85;;;13.60;84.10;;;;;;5035604;28;20068;-62
2022/10/14 00:49:22;;;;;;;30.05;16.38;;;13.50;84.10;;;;;;5034822;28;20034;-62
2022/10/14 00:51:59;;;;;;;39.80;16.15;;;13.50;84.10;;;;;;5034713;28;20033;-62
2022/10/14 00:54:33;;;;;;;32.40;15.52;;;13.50;84.00;;;;;;5037214;28;20029;-62
2022/10/14 00:56:59;;;;;;;42.05;14.38;;;13.50;84.00;;;;;;5035978;28;20040;-62
2022/10/14 00:59:25;;;;;;;27.23;13.98;;;13.50;84.00;;;;;;5033101;28;20030;-62
2022/10/14 01:01:50;;;;;;;30.95;15.15;;;13.50;84.10;;;;;;5038418;28;20311;-62
2022/10/14 01:04:16;;;;;;;32.30;14.65;;;13.40;84.10;;;;;;5035338;28;20029;-62
2022/10/14 01:06:47;;;;;;;30.95;14.25;;;13.40;84.10;;;;;;5037729;28;20025;-62
2022/10/14 01:09:21;;;;;;;28.88;15.10;;;13.40;84.10;;;;;;5030793;28;20060;-62
2022/10/14 01:12:02;;;;;;;35.38;14.90;;;13.40;84.20;;;;;;5031447;28;20056;-62
2022/10/14 01:14:45;;;;;;;30.70;14.30;;;13.40;84.20;;;;;;5034628;28;20075;-62
2022/10/14 01:17:32;;;;;;;29.70;14.93;;;13.40;84.20;;;;;;5035768;28;20109;-62
2022/10/14 01:20:15;;;;;;;34.22;13.43;;;13.40;84.20;;;;;;5034519;28;20033;-62
2022/10/14 01:22:51;;;;;;;27.08;12.70;;;13.40;84.20;;;;;;5035058;28;20033;-62
2022/10/14 01:25:42;;;;;;;26.58;13.00;;;13.40;84.20;;;;;;5034589;28;20112;-62
2022/10/14 01:28:42;;;;;;;26.17;13.05;;;13.40;84.20;;;;;;5029018;28;20041;-62
2022/10/14 01:31:13;;;;;;;26.48;12.85;;;13.40;84.20;;;;;;5023761;28;20033;-62
2022/10/14 01:33:45;;;;;;;24.98;12.27;;;13.40;84.20;;;;;;5034164;28;20033;-62
2022/10/14 01:36:34;;;;;;;24.67;12.93;;;13.30;84.20;;;;;;5034245;28;20091;-62
2022/10/14 01:39:20;;;;;;;27.40;12.05;;;13.30;84.90;;;;;;5035007;28;20043;-62
2022/10/14 01:41:50;;;;;;;22.50;11.85;;;13.30;84.20;;;;;;5033376;28;20158;-62
2022/10/14 01:44:18;;;;;;;24.42;12.23;;;13.30;84.30;;;;;;5033186;28;20036;-62
2022/10/14 01:46:49;;;;;;;26.08;11.60;;;13.30;84.30;;;;;;5033597;28;20031;-62
2022/10/14 01:49:37;;;;;;;25.13;11.82;;;13.40;84.30;;;;;;5048354;28;20044;-62
2022/10/14 01:52:11;;;;;;;26.52;12.65;;;13.30;84.20;;;;;;5034376;28;20021;-62
2022/10/14 01:54:43;;;;;;;31.38;13.40;;;13.40;84.30;;;;;;5037276;28;20418;-62
2022/10/14 01:57:12;;;;;;;34.00;14.07;;;13.30;84.20;;;;;;5034326;28;20025;-62
2022/10/14 01:59:40;;;;;;;36.15;15.10;;;13.30;84.20;;;;;;5049856;28;20033;-62
2022/10/14 02:02:05;;;;;;;39.20;14.65;;;13.30;84.20;;;;;;5033894;28;20029;-62
2022/10/14 02:04:31;;;;;;;39.83;17.23;;;13.30;84.20;;;;;;5032878;28;20028;-62
2022/10/14 02:07:10;;;;;;;39.88;17.38;;;13.30;84.20;;;;;;5034489;28;20440;-62
2022/10/14 02:09:48;;;;;;;34.53;15.07;;;13.30;84.10;;;;;;5039461;28;20370;-62
2022/10/14 02:12:39;;;;;;;36.08;15.65;;;13.30;84.10;;;;;;5043004;28;20110;-62
2022/10/14 02:15:19;;;;;;;28.30;13.35;;;13.30;84.00;;;;;;5021616;28;20049;-62
2022/10/14 02:18:10;;;;;;;29.88;14.35;;;13.30;84.10;;;;;;5036816;28;20025;-62
2022/10/14 02:21:02;;;;;;;28.15;14.55;;;13.30;84.10;;;;;;5040884;28;20454;-62
2022/10/14 02:23:41;;;;;;;25.77;12.63;;;13.30;84.00;;;;;;5045080;28;20446;-62
2022/10/14 02:26:08;;;;;;;26.42;12.27;;;13.30;84.10;;;;;;5042264;28;20021;-62
2022/10/14 02:28:35;;;;;;;25.65;13.35;;;13.30;84.10;;;;;;5043583;28;20022;-62
2022/10/14 02:31:05;;;;;;;24.08;12.50;;;13.30;84.10;;;;;;5039682;28;20075;-62
2022/10/14 02:33:36;;;;;;;26.67;12.90;;;13.30;84.10;;;;;;5045773;28;20031;-62
2022/10/14 02:36:04;;;;;;;25.15;12.70;;;13.30;84.10;;;;;;5034672;28;20033;-62
2022/10/14 02:38:33;;;;;;;28.45;13.80;;;13.30;84.10;;;;;;5035770;28;20338;-62
2022/10/14 02:41:03;;;;;;;24.92;12.63;;;13.30;84.20;;;;;;5048602;28;20044;-62
2022/10/14 02:43:29;;;;;;;24.30;13.48;;;13.30;84.20;;;;;;5039480;28;20113;-62
2022/10/14 02:46:01;;;;;;;26.33;14.57;;;13.30;84.20;;;;;;5035973;28;20143;-62
2022/10/14 02:48:27;;;;;;;25.67;13.80;;;13.40;84.20;;;;;;5037147;28;20029;-62
2022/10/14 02:50:53;;;;;;;29.88;15.15;;;13.30;84.20;;;;;;5039358;28;20090;-62
2022/10/14 02:53:19;;;;;;;25.48;14.13;;;13.30;84.20;;;;;;5033679;28;20025;-62
2022/10/14 02:55:45;;;;;;;30.13;15.40;;;13.30;84.20;;;;;;5032043;28;20069;-62
2022/10/14 02:58:10;;;;;;;28.25;14.73;;;13.30;84.20;;;;;;5034335;28;20045;-62
2022/10/14 03:00:36;;;;;;;29.15;14.43;;;13.40;84.30;;;;;;5031771;28;20445;-62
2022/10/14 03:03:02;;;;;;;32.08;15.23;;;13.40;84.30;;;;;;5021326;28;20028;-62
2022/10/14 03:05:29;;;;;;;31.95;15.68;;;13.40;84.20;;;;;;5036989;28;20029;-62
2022/10/14 03:07:55;;;;;;;29.92;15.57;;;13.40;84.20;;;;;;5036951;28;20037;-62
2022/10/14 03:10:22;;;;;;;31.23;16.33;;;13.40;84.20;;;;;;5036045;28;20138;-62
2022/10/14 03:12:48;;;;;;;35.03;15.85;;;13.40;84.20;;;;;;5037096;28;20101;-62
2022/10/14 03:15:23;;;;;;;29.60;14.95;;;13.40;84.20;;;;;;5036800;28;20037;-62
2022/10/14 03:17:49;;;;;;;34.33;17.38;;;13.40;84.20;;;;;;5021202;28;20022;-62
2022/10/14 03:20:19;;;;;;;33.28;17.25;;;13.40;84.20;;;;;;5038976;28;20022;-62
2022/10/14 03:22:50;;;;;;;33.35;16.92;;;13.40;84.30;;;;;;5023051;28;20080;-62
2022/10/14 03:25:16;;;;;;;34.45;17.10;;;13.40;84.20;;;;;;5014269;28;20030;-62
2022/10/14 03:27:58;;;;;;;34.25;15.93;;;13.40;84.20;;;;;;5025933;28;20346;-62
2022/10/14 03:30:36;;;;;;;35.22;16.90;;;13.40;84.20;;;;;;5027043;28;20029;-62
2022/10/14 03:33:09;;;;;;;33.42;16.20;;;13.40;84.30;;;;;;5020251;28;20068;-62
2022/10/14 03:35:44;;;;;;;37.72;18.30;;;13.40;84.30;;;;;;5032186;28;20026;-62
2022/10/14 03:38:13;;;;;;;35.20;17.58;;;13.40;84.30;;;;;;5030004;28;20399;-62
2022/10/14 03:40:39;;;;;;;35.10;18.15;;;13.40;84.40;;;;;;5032346;28;20028;-62
2022/10/14 03:43:08;;;;;;;34.30;16.52;;;13.40;84.40;;;;;;5030370;28;20025;-62
2022/10/14 03:45:44;;;;;;;38.20;17.55;;;13.40;84.40;;;;;;5031686;28;20026;-62
2022/10/14 03:48:11;;;;;;;34.83;18.17;;;13.40;84.40;;;;;;5032141;28;20041;-62
2022/10/14 03:50:38;;;;;;;38.15;18.60;;;13.40;84.50;;;;;;5031888;28;20029;-62
2022/10/14 03:53:05;;;;;;;36.88;19.02;;;13.40;84.50;;;;;;5029649;28;20029;-62
2022/10/14 03:55:35;;;;;;;39.97;19.17;;;13.40;84.50;;;;;;5032346;28;20116;-62
2022/10/14 03:58:03;;;;;;;38.50;18.48;;;13.40;84.50;;;;;;5034981;28;20022;-62
2022/10/14 04:00:29;;;;;;;35.97;19.45;;;13.40;84.50;;;;;;5019022;28;20079;-62
2022/10/14 04:03:10;;;;;;;40.92;19.42;;;13.40;84.50;;;;;;5020876;28;20045;-62
2022/10/14 04:05:38;;;;;;;33.58;18.00;;;13.40;84.50;;;;;;5035477;28;20366;-62
2022/10/14 04:08:10;;;;;;;36.88;18.77;;;13.40;84.50;;;;;;5029513;28;20083;-62
2022/10/14 04:10:39;;;;;;;34.42;18.10;;;13.50;84.60;;;;;;5050986;28;20025;-62
2022/10/14 04:13:08;;;;;;;35.28;17.58;;;13.40;84.50;;;;;;5042204;28;20438;-62
2022/10/14 04:15:36;;;;;;;38.10;17.85;;;13.50;84.60;;;;;;5059479;28;20052;-62
2022/10/14 04:18:10;;;;;;;37.85;18.15;;;13.50;84.60;;;;;;5043844;28;20025;-62
2022/10/14 04:20:37;;;;;;;35.88;18.75;;;13.50;84.60;;;;;;5036161;28;20024;-62
2022/10/14 04:23:04;;;;;;;36.28;18.73;;;13.50;84.60;;;;;;5034881;28;20026;-62
2022/10/14 04:25:31;;;;;;;36.60;19.30;;;13.50;84.60;;;;;;5049601;28;20029;-62
2022/10/14 04:28:01;;;;;;;38.15;19.13;;;13.50;84.60;;;;;;5043216;28;20048;-62
2022/10/14 04:30:38;;;;;;;39.75;18.75;;;13.50;84.60;;;;;;5055851;28;20025;-62
2022/10/14 04:33:06;;;;;;;41.75;20.02;;;13.50;84.60;;;;;;5050023;28;20025;-62
2022/10/14 04:35:32;;;;;;;36.65;19.20;;;13.50;84.70;;;;;;5046496;28;20442;-62
2022/10/14 04:37:59;;;;;;;39.60;20.95;;;13.50;84.70;;;;;;5039636;28;20104;-62
2022/10/14 04:40:29;;;;;;;36.67;19.33;;;13.50;84.70;;;;;;5048313;28;20025;-62
2022/10/14 04:42:57;;;;;;;36.60;20.08;;;13.50;84.70;;;;;;5043377;28;20450;-62
2022/10/14 04:45:28;;;;;;;40.85;21.05;;;13.50;84.70;;;;;;5043864;28;20033;-62
2022/10/14 04:48:03;;;;;;;38.17;19.75;;;13.50;84.70;;;;;;5047893;28;20036;-62
2022/10/14 04:50:28;;;;;;;36.10;18.77;;;13.50;84.60;;;;;;5044008;28;20052;-63
2022/10/14 04:53:13;;;;;;;38.15;18.20;;;13.50;84.60;;;;;;5033473;28;20041;-63
2022/10/14 04:55:48;;;;;;;36.58;19.50;;;13.50;84.60;;;;;;5033023;28;20314;-62
2022/10/14 04:58:15;;;;;;;36.88;18.95;;;13.50;84.70;;;;;;5034781;28;20111;-63
2022/10/14 05:00:43;;;;;;;39.78;20.58;;;13.50;84.60;;;;;;5034724;28;20049;-63
2022/10/14 05:03:22;;;;;;;35.33;17.52;;;13.50;84.70;;;;;;5034638;28;20354;-63
2022/10/14 05:05:51;;;;;;;38.92;19.10;;;13.50;84.70;;;;;;5032355;28;20048;-62
2022/10/14 05:08:18;;;;;;;38.10;20.10;;;13.50;84.70;;;;;;5033062;28;20344;-62
2022/10/14 05:10:47;;;;;;;39.53;20.05;;;13.50;84.70;;;;;;5019049;28;20029;-62
2022/10/14 05:13:20;;;;;;;38.60;20.10;;;13.50;84.70;;;;;;5035906;28;20124;-62
2022/10/14 05:15:58;;;;;;;42.15;20.38;;;13.50;84.70;;;;;;5034378;28;20466;-62
2022/10/14 05:18:24;;;;;;;39.60;19.67;;;13.50;84.70;;;;;;5034437;28;20049;-62
2022/10/14 05:20:58;;;;;;;37.47;19.33;;;13.50;84.70;;;;;;5035227;28;20021;-62
2022/10/14 05:23:31;;;;;;;38.42;20.50;;;13.50;84.80;;;;;;5035269;28;20350;-62
2022/10/14 05:25:58;;;;;;;39.88;20.08;;;13.50;84.80;;;;;;5034863;28;20025;-62
2022/10/14 05:28:25;;;;;;;41.20;20.73;;;13.60;84.90;;;;;;5035243;28;20067;-62
2022/10/14 05:30:50;;;;;;;42.17;21.67;;;13.50;84.90;;;;;;5035439;28;20053;-62
2022/10/14 05:33:17;;;;;;;40.67;21.77;;;13.60;85.00;;;;;;5035077;28;20032;-62
2022/10/14 05:35:43;;;;;;;41.08;21.40;;;13.60;85.00;;;;;;5034386;28;20033;-62
2022/10/14 05:38:12;;;;;;;42.50;21.50;;;13.60;85.00;;;;;;5017764;28;20120;-62
2022/10/14 05:40:40;;;;;;;42.03;23.17;;;13.60;85.10;;;;;;5035245;28;20017;-62
2022/10/14 05:43:06;;;;;;;42.13;22.83;;;13.60;85.00;;;;;;5033360;28;20018;-62
2022/10/14 05:45:34;;;;;;;41.92;22.25;;;13.60;85.00;;;;;;5036851;28;20029;-62
2022/10/14 05:48:01;;;;;;;44.17;23.02;;;13.60;85.10;;;;;;5033939;28;20022;-62
2022/10/14 05:50:27;;;;;;;42.58;22.08;;;13.60;85.10;;;;;;5034789;28;20094;-62
2022/10/14 05:52:53;;;;;;;44.42;22.88;;;13.60;85.10;;;;;;5031957;28;20053;-62
2022/10/14 05:55:24;;;;;;;39.15;20.05;;;13.60;85.10;;;;;;5033985;28;20585;-62
2022/10/14 05:57:57;;;;;;;42.15;23.02;;;13.60;85.20;;;;;;5021030;28;20029;-63
2022/10/14 06:00:28;;;;;;;42.42;22.27;;;13.70;85.30;;;;;;5036707;28;20021;-62
2022/10/14 06:03:00;;;;;;;44.35;23.20;;;13.70;85.30;;;;;;5037334;28;20021;-63
2022/10/14 06:05:26;;;;;;;45.50;21.60;;;13.70;85.40;;;;;;5041729;28;20477;-64
2022/10/14 06:07:52;;;;;;;39.92;21.83;;;13.70;85.40;;;;;;5034664;28;20025;-64
2022/10/14 06:10:18;;;;;;;42.78;22.77;;;13.70;85.40;;;;;;5019942;28;20441;-63
2022/10/14 06:12:43;;;;;;;45.53;23.40;;;13.80;85.40;;;;;;5043030;28;20406;-64
2022/10/14 06:15:10;;;;;;;41.25;22.25;;;13.80;85.40;;;;;;5036065;28;20044;-64
2022/10/14 06:17:36;;;;;;;37.83;21.55;;;13.80;85.50;;;;;;5032663;28;20450;-64
2022/10/14 06:20:02;;;;;;;42.33;23.58;;;13.80;85.50;;;;;;5034724;28;20096;-64
2022/10/14 06:22:28;;;;;;;43.17;23.10;;;13.90;85.50;;;;;;5033462;28;20108;-64
2022/10/14 06:24:53;;;;;;;40.35;21.83;;;13.80;85.60;;;;;;5032077;28;20365;-64
2022/10/14 06:27:19;;;;;;;40.00;22.50;;;13.90;85.60;;;;;;5035463;28;20108;-64
2022/10/14 06:29:46;;;;;;;41.33;23.65;;;13.90;85.60;;;;;;5035327;28;20038;-64
2022/10/14 06:32:12;;;;;;;38.10;22.08;;;13.90;85.60;;;;;;5034664;28;20029;-64
2022/10/14 06:34:37;;;;;;;37.92;21.42;;;13.90;85.70;;;;;;5033261;28;20032;-64
2022/10/14 06:37:03;;;;;;;35.70;20.95;;;13.90;85.70;;;;;;5033069;28;20489;-64
2022/10/14 06:39:29;;;;;;;35.55;20.42;;;14.00;85.70;;;;;;5030383;28;20033;-64
2022/10/14 06:41:54;;;;;;;37.83;20.77;;;14.00;85.80;;;;;;5032811;28;20108;-63
2022/10/14 06:44:22;;;;;;;33.78;19.65;;;14.00;85.90;;;;;;5032776;28;20025;-63
2022/10/14 06:46:48;;;;;;;31.38;18.63;;;14.10;85.90;;;;;;5034227;28;20082;-63
2022/10/14 06:49:13;;;;;;;29.75;19.08;;;14.10;85.90;;;;;;5032982;28;20029;-65
2022/10/14 06:51:39;;;;;;;26.98;18.77;;;14.10;86.00;;;;;;5033036;28;20022;-64
2022/10/14 06:54:06;;;;;;;29.15;19.45;;;14.20;86.10;;;;;;5032009;28;20113;-64
2022/10/14 06:56:33;;;;;;;26.42;18.15;;;14.20;86.10;;;;;;5034377;28;20029;-64
2022/10/14 06:58:59;;;;;;;24.50;16.65;;;14.20;86.10;;;;;;5033836;28;20029;-64
2022/10/14 07:01:25;;;;;;;26.50;16.48;;;14.30;86.20;;;;;;5032990;28;20112;-64
2022/10/14 07:03:51;;;;;;;23.48;15.88;;;14.30;86.30;;;;;;5034801;28;20171;-64
2022/10/14 07:06:17;;;;;;;24.58;15.82;;;14.30;86.40;;;;;;5031229;28;20030;-65
2022/10/14 07:08:43;;;;;;;24.38;16.13;;;14.40;86.50;;;;;;5029474;28;20112;-65
2022/10/14 07:11:08;;;;;;;26.48;15.70;;;14.40;86.50;;;;;;5034168;28;20065;-66
2022/10/14 07:13:34;;;;;;;23.77;15.82;;;14.40;86.50;;;;;;5031408;28;20117;-63
2022/10/14 07:16:00;;;;;;;25.23;16.13;;;14.40;86.60;;;;;;5035479;28;20033;-64
2022/10/14 07:18:25;;;;;;;22.73;15.05;;;14.50;86.70;;;;;;5034415;28;20041;-65
2022/10/14 07:20:51;;;;;;;22.83;16.15;;;14.40;86.70;;;;;;5032794;28;20052;-64
2022/10/14 07:23:17;;;;;;;23.80;16.50;;;14.40;86.80;;;;;;5037962;28;20029;-64
2022/10/14 07:25:43;;;;;;;24.98;16.73;;;14.50;86.90;;;;;;5035824;28;20037;-65
2022/10/14 07:28:08;;;;;;;24.35;15.85;;;14.50;87.00;;;;;;5049051;28;20361;-64
2022/10/14 07:30:34;;;;;;;23.30;15.35;;;14.50;87.10;;;;;;5049173;28;20033;-64
2022/10/14 07:33:00;;;;;;;23.38;15.48;;;14.50;87.10;;;;;;5056674;28;20334;-64
2022/10/14 07:35:26;;;;;;;23.55;16.38;;;14.50;87.20;;;;;;5044757;28;20136;-64
2022/10/14 07:37:52;;;;;;;20.63;14.45;;;14.50;87.30;;;;;;5057956;28;20094;-64
2022/10/14 07:40:18;;;;;;;27.88;19.70;;;14.50;87.30;;;;;;5040939;28;20034;-63
2022/10/14 07:42:43;;;;;;;27.33;17.55;;;14.50;87.30;;;;;;5046370;28;20346;-64
2022/10/14 07:45:14;;;;;;;24.75;17.63;;;14.60;87.50;;;;;;5042387;28;20053;-63
2022/10/14 07:47:46;;;;;;;25.00;18.00;;;14.60;87.50;;;;;;5054319;28;20067;-64
2022/10/14 07:50:12;;;;;;;24.58;15.35;;;14.60;87.50;;;;;;5057385;28;20523;-64
2022/10/14 07:52:37;;;;;;;19.25;13.68;;;14.60;87.50;;;;;;5041083;28;20061;-63
2022/10/14 07:55:04;;;;;;;19.17;12.93;;;14.60;87.60;;;;;;5042069;28;20053;-63
2022/10/14 07:57:30;;;;;;;18.42;11.57;;;14.60;87.70;;;;;;5053294;28;20017;-63
2022/10/14 07:59:56;;;;;;;17.35;11.23;;;14.60;87.80;;;;;;5057652;28;20386;-64
2022/10/14 08:02:22;;;;;;;17.30;11.93;;;14.60;87.80;;;;;;5033843;28;20037;-63
2022/10/14 08:04:52;;;;;;;15.50;10.77;;;14.60;87.80;;;;;;5038101;28;20040;-63
2022/10/14 08:07:18;;;;;;;15.95;10.75;;;14.70;88.00;;;;;;5036159;28;20041;-63
2022/10/14 08:09:43;;;;;;;15.43;10.77;;;14.60;87.90;;;;;;5041541;28;20021;-64
2022/10/14 08:12:09;;;;;;;16.05;10.55;;;14.70;88.00;;;;;;5033492;28;20348;-65
2022/10/14 08:14:35;;;;;;;14.68;10.00;;;14.70;88.00;;;;;;5048524;28;20128;-64
2022/10/14 08:17:00;;;;;;;13.30;9.80;;;14.70;88.00;;;;;;5045962;28;20026;-64
2022/10/14 08:19:26;;;;;;;14.38;10.02;;;14.80;88.10;;;;;;5037192;28;20018;-65
2022/10/14 08:21:52;;;;;;;13.00;8.73;;;14.80;88.10;;;;;;5036935;28;20029;-64
2022/10/14 08:24:18;;;;;;;13.30;9.15;;;14.80;88.20;;;;;;5036637;28;20037;-65
2022/10/14 08:26:52;;;;;;;13.45;8.95;;;14.80;88.10;;;;;;5053655;28;20040;-65
2022/10/14 08:29:18;;;;;;;12.52;8.68;;;14.80;88.20;;;;;;5056938;28;20025;-64
2022/10/14 08:31:44;;;;;;;13.25;9.65;;;14.80;88.20;;;;;;5046183;28;20036;-64
2022/10/14 08:34:10;;;;;;;13.52;8.95;;;14.80;88.20;;;;;;5051319;28;20036;-65
2022/10/14 08:36:36;;;;;;;13.77;9.68;;;14.90;88.30;;;;;;5042566;28;20028;-64
2022/10/14 08:39:03;;;;;;;15.63;9.85;;;14.90;88.30;;;;;;5053086;28;20512;-64
2022/10/14 08:41:56;;;;;;;12.60;9.00;;;14.90;88.40;;;;;;5048126;28;20377;-65
2022/10/14 08:44:34;;;;;;;12.80;8.95;;;14.90;88.40;;;;;;5041914;28;20091;-64
2022/10/14 08:47:03;;;;;;;14.68;9.55;;;14.90;88.40;;;;;;5052756;28;20522;-64
2022/10/14 08:49:54;;;;;;;13.05;9.40;;;14.90;88.40;;;;;;5063165;28;20505;-64
2022/10/14 08:52:40;;;;;;;14.20;9.27;;;14.90;88.40;;;;;;5044268;28;20030;-65
2022/10/14 08:55:42;;;;;;;12.90;9.07;;;15.00;88.50;;;;;;5033542;28;20033;-64
2022/10/14 08:58:22;;;;;;;12.05;8.57;;;15.00;88.40;;;;;;5035039;28;20038;-64
2022/10/14 09:00:50;;;;;;;13.48;9.60;;;15.00;88.40;;;;;;5035812;28;20025;-64
2022/10/14 09:03:32;;;;;;;12.60;9.13;;;15.00;88.50;;;;;;5035532;28;20033;-64
2022/10/14 09:06:23;;;;;;;12.32;9.38;;;15.00;88.50;;;;;;5034300;28;20029;-65
2022/10/14 09:08:51;;;;;;;12.07;8.95;;;15.10;88.50;;;;;;5032121;28;20481;-64
2022/10/14 09:11:19;;;;;;;14.65;9.15;;;15.10;88.50;;;;;;5033924;28;20041;-65
2022/10/14 09:13:51;;;;;;;12.57;9.43;;;15.10;88.60;;;;;;5031918;28;20038;-65
2022/10/14 09:16:33;;;;;;;11.90;8.57;;;15.10;88.60;;;;;;5034874;28;20026;-65
2022/10/14 09:19:02;;;;;;;12.35;9.23;;;15.10;88.60;;;;;;5029167;28;20025;-64
2022/10/14 09:21:33;;;;;;;13.10;9.15;;;15.10;88.60;;;;;;5032913;28;20101;-65
2022/10/14 09:24:05;;;;;;;13.60;9.73;;;15.10;88.80;;;;;;5033558;28;20339;-64
2022/10/14 09:26:43;;;;;;;11.98;8.90;;;15.10;88.80;;;;;;5035087;28;20034;-64
2022/10/14 09:29:28;;;;;;;12.52;8.43;;;15.10;88.90;;;;;;5029792;28;20116;-64
2022/10/14 09:32:01;;;;;;;12.57;9.10;;;15.10;88.90;;;;;;5034730;28;20017;-63
2022/10/14 09:34:36;;;;;;;12.55;8.38;;;15.10;88.90;;;;;;5033529;28;20037;-64
2022/10/14 09:37:31;;;;;;;11.13;8.00;;;15.20;88.90;;;;;;5035057;28;20041;-64
2022/10/14 09:40:15;;;;;;;10.85;7.93;;;15.20;88.90;;;;;;5030764;28;20105;-64
2022/10/14 09:43:05;;;;;;;12.80;9.13;;;15.20;89.00;;;;;;5031890;28;20021;-63
2022/10/14 09:45:55;;;;;;;10.85;7.68;;;15.20;89.00;;;;;;5033478;28;20030;-64
2022/10/14 09:48:43;;;;;;;11.40;7.95;;;15.20;88.90;;;;;;5031982;28;20033;-64
2022/10/14 09:51:17;;;;;;;10.27;7.60;;;15.20;89.00;;;;;;5033732;28;20108;-63
2022/10/14 09:53:48;;;;;;;11.00;7.65;;;15.30;89.00;;;;;;5031822;28;20421;-63
2022/10/14 09:56:14;;;;;;;10.18;7.55;;;15.30;88.90;;;;;;5034603;28;20034;-64
2022/10/14 09:58:52;;;;;;;11.48;8.48;;;15.30;88.90;;;;;;5032888;28;20462;-64
2022/10/14 10:01:25;;;;;;;11.50;8.15;;;15.40;89.00;;;;;;5032681;28;20025;-63
2022/10/14 10:03:52;;;;;;;12.38;9.30;;;15.40;88.90;;;;;;5033862;28;20036;-63
2022/10/14 10:06:22;;;;;;;12.18;8.43;;;15.40;88.90;;;;;;5048809;28;20033;-64
2022/10/14 10:08:56;;;;;;;14.13;9.45;;;15.50;88.90;;;;;;5032969;28;20460;-64
2022/10/14 10:11:37;;;;;;;13.52;9.88;;;15.50;89.00;;;;;;5034670;28;20036;-64
2022/10/14 10:14:17;;;;;;;12.43;8.88;;;15.50;89.00;;;;;;5032223;28;20140;-64
2022/10/14 10:16:43;;;;;;;11.52;8.13;;;15.50;88.90;;;;;;5033902;28;20100;-64
2022/10/14 10:19:25;;;;;;;11.88;7.95;;;15.50;88.90;;;;;;5032138;28;20116;-63
2022/10/14 10:21:51;;;;;;;11.25;7.00;;;15.60;89.00;;;;;;5034204;28;20033;-64
2022/10/14 10:24:20;;;;;;;10.20;7.22;;;15.60;88.90;;;;;;5031721;28;20079;-64
2022/10/14 10:26:46;;;;;;;10.18;7.38;;;15.60;89.00;;;;;;5033538;28;20424;-64
2022/10/14 10:29:24;;;;;;;11.48;8.35;;;15.60;89.00;;;;;;5033292;28;20103;-64
2022/10/14 10:32:00;;;;;;;11.23;7.82;;;15.60;89.00;;;;;;5028009;28;20109;-63
2022/10/14 10:35:08;;;;;;;12.25;7.95;;;15.60;89.00;;;;;;5029856;28;20064;-64
2022/10/14 10:37:55;;;;;;;10.65;7.53;;;15.60;89.00;;;;;;5029938;28;20091;-63
2022/10/14 10:40:54;;;;;;;11.02;7.93;;;15.60;89.00;;;;;;5034752;28;20033;-64
2022/10/14 10:43:38;;;;;;;9.82;7.38;;;15.60;88.90;;;;;;5021405;28;20053;-64
2022/10/14 10:46:21;;;;;;;11.27;7.45;;;15.70;88.90;;;;;;5031999;28;20461;-64
2022/10/14 10:48:54;;;;;;;10.50;7.20;;;15.70;88.80;;;;;;5032211;28;20040;-64
2022/10/14 10:51:34;;;;;;;14.88;7.75;;;15.70;88.80;;;;;;5030845;28;20029;-63
2022/10/14 10:54:12;;;;;;;12.98;8.52;;;15.80;88.80;;;;;;5032117;28;20112;-64
2022/10/14 10:57:02;;;;;;;10.80;7.75;;;15.80;88.70;;;;;;5032889;28;20040;-64
2022/10/14 10:59:54;;;;;;;11.88;8.13;;;15.90;88.70;;;;;;5032407;28;20025;-64
2022/10/14 11:02:55;;;;;;;11.23;8.13;;;15.90;88.70;;;;;;5047404;28;20446;-64
2022/10/14 11:05:36;;;;;;;10.20;7.13;;;15.90;88.50;;;;;;5010581;28;20327;-64
2022/10/14 11:14:23;;;;;;;12.18;8.07;;;16.00;88.50;;;;;;5008721;28;20033;-64
2022/10/14 11:17:24;;;;;;;10.35;7.43;;;16.00;88.40;;;;;;5012321;28;20069;-64
2022/10/14 11:20:06;;;;;;;10.32;7.35;;;16.00;88.50;;;;;;4995540;28;20041;-64
2022/10/14 11:23:13;;;;;;;9.23;6.32;;;16.00;88.50;;;;;;5011750;28;20033;-64
2022/10/14 11:25:48;;;;;;;12.73;8.13;;;16.00;88.50;;;;;;5014855;28;20092;-64
2022/10/14 11:28:37;;;;;;;11.20;7.32;;;16.00;88.60;;;;;;5013492;28;20109;-64
2022/10/14 11:31:28;;;;;;;10.88;7.07;;;16.00;88.70;;;;;;5011678;28;20423;-64
2022/10/14 11:34:23;;;;;;;9.20;6.95;;;16.00;88.80;;;;;;5012137;28;20038;-64
2022/10/14 11:37:19;;;;;;;14.45;8.27;;;16.00;88.70;;;;;;5014337;28;20037;-65
2022/10/14 11:40:06;;;;;;;10.40;7.82;;;16.00;88.70;;;;;;5027450;28;20041;-64
2022/10/14 11:42:52;;;;;;;11.18;7.68;;;16.00;88.80;;;;;;5016195;28;20057;-64
2022/10/14 11:45:38;;;;;;;10.13;7.38;;;16.00;88.80;;;;;;5023006;28;20053;-64
2022/10/14 11:48:21;;;;;;;10.93;7.80;;;16.00;88.80;;;;;;5030372;28;20040;-64
2022/10/14 11:50:53;;;;;;;10.25;7.13;;;16.00;88.80;;;;;;5025085;28;20042;-64
2022/10/14 11:53:47;;;;;;;11.38;8.40;;;16.00;88.90;;;;;;5012768;28;20029;-64
2022/10/14 11:56:28;;;;;;;10.88;7.85;;;16.00;88.90;;;;;;5010795;28;20048;-64
2022/10/14 11:59:00;;;;;;;10.83;7.47;;;15.90;89.00;;;;;;5014725;28;20117;-64
2022/10/14 12:01:29;;;;;;;10.75;7.68;;;16.00;89.10;;;;;;5014667;28;20269;-64
2022/10/14 12:04:03;;;;;;;10.38;7.05;;;16.00;89.10;;;;;;5014662;28;20030;-64
2022/10/14 12:06:37;;;;;;;10.52;8.18;;;16.00;89.20;;;;;;5014669;28;20105;-64
2022/10/14 12:09:18;;;;;;;9.75;7.60;;;16.00;89.30;;;;;;5013515;28;20034;-65
2022/10/14 12:11:55;;;;;;;10.30;7.50;;;16.00;89.30;;;;;;5014299;28;20029;-64
2022/10/14 12:14:33;;;;;;;10.85;6.82;;;16.00;89.30;;;;;;5013640;28;20305;-64
2022/10/14 12:17:04;;;;;;;10.73;6.72;;;16.00;89.30;;;;;;5010249;28;20029;-64
2022/10/14 12:19:30;;;;;;;10.10;7.18;;;16.00;89.40;;;;;;5011702;28;20026;-64
2022/10/14 12:22:14;;;;;;;9.38;6.90;;;16.00;89.40;;;;;;5018154;28;20030;-64
2022/10/14 12:24:45;;;;;;;9.15;5.97;;;16.00;89.50;;;;;;5017230;28;20025;-64
2022/10/14 12:27:13;;;;;;;8.57;6.07;;;16.00;89.50;;;;;;5010872;28;20080;-64
2022/10/14 12:29:44;;;;;;;9.38;6.57;;;16.00;89.50;;;;;;5014119;28;20077;-64
2022/10/14 12:32:18;;;;;;;9.10;6.15;;;16.00;89.50;;;;;;5013672;28;20439;-68
2022/10/14 12:34:46;;;;;;;7.85;5.53;;;16.00;89.60;;;;;;5029595;28;20129;-64
2022/10/14 12:37:23;;;;;;;8.18;5.80;;;16.00;89.60;;;;;;5011274;28;20044;-64
2022/10/14 12:40:13;;;;;;;8.13;5.60;;;16.00;89.60;;;;;;5012274;28;20443;-64
2022/10/14 12:42:42;;;;;;;8.25;5.35;;;16.00;89.60;;;;;;5013966;28;20084;-64
2022/10/14 12:45:24;;;;;;;8.32;5.38;;;16.00;89.60;;;;;;5017405;28;20426;-64
2022/10/14 12:48:01;;;;;;;7.93;4.93;;;16.10;89.70;;;;;;5014639;28;20418;-64
2022/10/14 12:50:35;;;;;;;7.05;4.47;;;16.10;89.60;;;;;;5014294;28;20037;-64
2022/10/14 12:53:04;;;;;;;7.00;4.20;;;16.20;89.60;;;;;;5013027;28;20044;-64
2022/10/14 12:55:47;;;;;;;6.85;4.10;;;16.30;89.50;;;;;;5013660;28;20143;-64
2022/10/14 12:58:30;;;;;;;6.63;3.40;;;16.30;89.50;;;;;;5012606;28;20177;-65
2022/10/14 13:01:00;;;;;;;8.20;3.97;;;16.30;89.50;;;;;;5005468;28;20975;-64
2022/10/14 13:03:34;;;;;;;6.55;3.47;;;16.30;89.60;;;;;;5005775;28;20030;-64